• Join FlightAware (Why Join?)
  • Login
  • US Flag 
12:42AM EDT


 

Airport Tracker/Info


-or-


 

Live Flight TrackerFlight Track Log ✈ THY2467 ✈ 10-Jul-2013 ✈ LTAF / ADA - LTBA / IST

Flight Track Log - Related Links

Times and Time Zones

All times are in EDT time to prevent confusion due to time zone crossing. See the THY2467 flight status page for this flight to view local times or setup timezone preferences in your user account.

Time Position Orientation Groundspeed Altitude Reporting Facility
EDT Latitude Longitude Course Direction KTS MPH feet Rate Location/Type
11:38AM 37.3860 34.6832 311° West  Level Estimated
11:39AM 37.4435 34.5973 310° West  Level Estimated
11:40AM 37.5009 34.5113 310° West  Level Estimated
11:41AM 37.5582 34.4252 310° West  Level Estimated
11:42AM 37.6154 34.3390 310° West  Level Estimated
11:43AM 37.6726 34.2526 310° West  Level Estimated
11:44AM 37.7298 34.1661 310° West  Level Estimated
11:45AM 37.7868 34.0795 310° West  Level Estimated
11:46AM 37.8438 33.9927 310° West  Level Estimated
11:47AM 37.9008 33.9058 310° West  Level Estimated
11:48AM 37.9577 33.8188 310° West  Level Estimated
11:49AM 38.0145 33.7316 310° West  Level Estimated
11:50AM 38.0712 33.6443 310° West  Level Estimated
11:51AM 38.1279 33.5568 310° West  Level Estimated
11:52AM 38.1845 33.4692 309° West  Level Estimated
11:53AM 38.2411 33.3815 309° West  Level Estimated
11:54AM 38.2976 33.2937 309° West  Level Estimated
11:55AM 38.3540 33.2057 309° West  Level Estimated
11:56AM 38.4104 33.1176 309° West  Level Estimated
11:57AM 38.4666 33.0293 309° West  Level Estimated
11:58AM 38.5229 32.9409 309° West  Level Estimated
11:59AM 38.5790 32.8523 309° West  Level Estimated
12:00PM 38.6351 32.7637 309° West  Level Estimated
12:01PM 38.6912 32.6749 309° West  Level Estimated
12:02PM 38.7471 32.5859 309° West  Level Estimated
12:03PM 38.8030 32.4968 309° West  Level Estimated
12:04PM 38.8588 32.4076 309° West  Level Estimated
12:05PM 38.9146 32.3182 309° West  Level Estimated
12:06PM 38.9703 32.2286 309° West  Level Estimated
12:07PM 39.0259 32.1390 309° West  Level Estimated
12:08PM 39.0815 32.0492 309° West  Level Estimated
12:09PM 39.1369 31.9592 309° West  Level Estimated
12:10PM 39.1923 31.8692 308° West  Level Estimated
12:11PM 39.2477 31.7789 308° West  Level Estimated
12:12PM 39.3030 31.6886 308° West  Level Estimated
12:13PM 39.3582 31.5981 308° West  Level Estimated
12:14PM 39.4133 31.5074 308° West  Level Estimated
12:15PM 39.4683 31.4166 308° West  Level Estimated
12:16PM 39.5233 31.3257 308° West  Level Estimated
12:17PM 39.5783 31.2346 308° West  Level Estimated
12:18PM 39.6331 31.1434 308° West  Level Estimated
12:19PM 39.6879 31.0520 308° West  Level Estimated
12:20PM 39.7426 30.9605 308° West  Level Estimated
12:21PM 39.7972 30.8688 308° West  Level Estimated
12:22PM 39.8518 30.7770 308° West  Level Estimated
12:23PM 39.9063 30.6850 308° West  Level Estimated
12:24PM 39.9607 30.5929 308° West  Level Estimated
12:25PM 40.0150 30.5007 308° West  Level Estimated
12:26PM 40.0693 30.4083 308° West  Level Estimated
12:27PM 40.1235 30.3158 307° West  Level Estimated
12:28PM 40.1776 30.2231 307° West  Level Estimated
12:29PM 40.2317 30.1302 307° West  Level Estimated
12:30PM 40.2856 30.0372 307° West  Level Estimated
12:31PM 40.3395 29.9441 307° West  Level Estimated
12:32PM 40.3934 29.8508 307° West  Level Estimated
12:33PM 40.4471 29.7574 307° West  Level Estimated
12:34PM 40.5008 29.6638 307° West  Level Estimated
12:35PM 40.5544 29.5701 307° West  Level Estimated
12:36PM 40.6079 29.4762 307° West  Level Estimated
12:37PM 40.6614 29.3822 307° West  Level Estimated
12:38PM 40.7147 29.2880 307° West  Level Estimated
12:39PM 40.7680 29.1936 307° West  Level Estimated
12:40PM 40.8212 29.0992 307° West  Level Estimated
12:41PM 40.8744 29.0045 307° West  Level Estimated
12:42PM 40.9274 28.9097 307° West  Level Estimated
12:43PM 40.9769 28.8211 306° West  Level Estimated
12:44PM 40.9769 28.8211 21° North  Level Estimated
12:45PM 40.9769 28.8211 21° North  Level Estimated
12:46PM 40.9769 28.8211 21° North  Level Estimated
12:47PM 40.9769 28.8211 21° North  Level Estimated
12:48PM 40.9769 28.8211 21° North  Level Estimated
12:49PM 40.9769 28.8211 21° North  Level Estimated
12:50PM 40.9769 28.8211 21° North  Level Estimated
12:51PM 40.9769 28.8211 21° North  Level Estimated
12:52PM 40.9769 28.8211 21° North  Level Estimated
12:53PM 40.9769 28.8211 21° North  Level Estimated
12:54PM 40.9769 28.8211 21° North  Level Estimated
12:55PM 40.9769 28.8211 21° North  Level Estimated
12:56PM 40.9769 28.8211 21° North  Level Estimated
12:57PM 40.9769 28.8211 21° North  Level Estimated
12:58PM 40.9769 28.8211 21° North  Level Estimated
12:59PM 40.9769 28.8211 21° North  Level Estimated